createdAt,value
2022-09-07T00:01:49.497Z,101089.50
2022-09-07T00:04:31.324Z,101101.69
2022-09-07T00:07:00.860Z,101090.13
2022-09-07T00:09:30.715Z,101094.97
2022-09-07T00:12:00.754Z,101100.63
2022-09-07T00:14:27.586Z,101095.94
2022-09-07T00:16:57.324Z,101087.03
2022-09-07T00:19:24.166Z,101086.97
2022-09-07T00:21:51.101Z,101078.53
2022-09-07T00:24:20.246Z,101067.94
2022-09-07T00:26:47.053Z,101076.75
2022-09-07T00:29:13.942Z,101083.22
2022-09-07T00:31:40.829Z,101080.84
2022-09-07T00:34:12.891Z,101074.56
2022-09-07T00:36:39.903Z,101075.19
2022-09-07T00:39:06.714Z,101066.88
2022-09-07T00:41:35.652Z,101081.47
2022-09-07T00:44:40.385Z,101092.44
2022-09-07T00:47:23.215Z,101092.03
2022-09-07T00:49:58.100Z,101086.50
2022-09-07T00:52:27.280Z,101080.00
2022-09-07T00:55:06.150Z,101077.13
2022-09-07T00:57:36.440Z,101059.34
2022-09-07T01:00:06.447Z,101057.25
2022-09-07T01:02:33.398Z,101059.72
2022-09-07T01:05:31.820Z,101067.59
2022-09-07T01:07:59.563Z,101062.09
2022-09-07T01:10:31.703Z,101070.00
2022-09-07T01:13:00.143Z,101072.44
2022-09-07T01:15:42.990Z,101067.75
2022-09-07T01:18:24.065Z,101068.94
2022-09-07T01:21:07.532Z,101062.03
2022-09-07T01:24:02.527Z,101060.19
2022-09-07T01:27:06.880Z,101056.19
2022-09-07T01:29:36.580Z,101050.69
2022-09-07T01:32:12.216Z,101053.69
2022-09-07T01:34:43.808Z,101047.63
2022-09-07T01:37:14.748Z,101055.91
2022-09-07T01:40:06.611Z,101058.13
2022-09-07T01:42:41.193Z,101063.66
2022-09-07T01:45:13.040Z,101068.16
2022-09-07T01:47:49.835Z,101067.16
2022-09-07T01:50:37.801Z,101068.50
2022-09-07T01:53:26.348Z,101072.13
2022-09-07T01:55:52.984Z,101072.31
2022-09-07T01:58:38.753Z,101065.28
2022-09-07T02:01:11.217Z,101066.16
2022-09-07T02:03:47.272Z,101066.94
2022-09-07T02:06:15.806Z,101070.63
2022-09-07T02:09:41.533Z,101074.28
2022-09-07T02:12:22.791Z,101073.13
2022-09-07T02:14:57.287Z,101073.13
2022-09-07T02:17:34.500Z,101067.88
2022-09-07T02:20:11.384Z,101062.41
2022-09-07T02:22:42.694Z,101068.28
2022-09-07T02:25:12.805Z,101064.19
2022-09-07T02:27:55.425Z,101068.09
2022-09-07T02:30:22.550Z,101061.81
2022-09-07T02:32:49.437Z,101061.00
2022-09-07T02:35:16.604Z,101063.81
2022-09-07T02:37:45.523Z,101062.63
2022-09-07T02:40:13.183Z,101069.72
2022-09-07T02:42:39.952Z,101068.59
2022-09-07T02:45:09.910Z,101066.41
2022-09-07T02:48:04.364Z,101071.72
2022-09-07T02:50:43.438Z,101066.50
2022-09-07T02:53:39.409Z,101058.81
2022-09-07T02:56:27.941Z,101066.94
2022-09-07T02:59:12.691Z,101075.06
2022-09-07T03:02:15.044Z,101084.75
2022-09-07T03:05:03.582Z,101092.00
2022-09-07T03:07:36.243Z,101096.88
2022-09-07T03:10:06.648Z,101103.16
2022-09-07T03:12:45.599Z,101103.16
2022-09-07T03:15:18.482Z,101105.78
2022-09-07T03:17:45.934Z,101101.88
2022-09-07T03:20:13.436Z,101088.63
2022-09-07T03:22:40.558Z,101087.00
2022-09-07T03:25:07.807Z,101094.88
2022-09-07T03:27:35.458Z,101087.00
2022-09-07T03:30:02.625Z,101067.56
2022-09-07T03:32:35.197Z,101059.81
2022-09-07T03:35:03.372Z,101053.41
2022-09-07T03:37:30.332Z,101061.72
2022-09-07T03:39:57.331Z,101078.59
2022-09-07T03:42:24.820Z,101073.63
2022-09-07T03:44:51.668Z,101077.91
2022-09-07T03:47:21.071Z,101075.44
2022-09-07T03:49:49.175Z,101069.75
2022-09-07T03:52:19.350Z,101075.00
2022-09-07T03:54:48.810Z,101067.06
2022-09-07T03:57:20.245Z,101066.28
2022-09-07T03:59:47.365Z,101056.13
2022-09-07T04:02:14.462Z,101056.72
2022-09-07T04:04:43.246Z,101046.16
2022-09-07T04:07:16.389Z,101046.78
2022-09-07T04:09:45.465Z,101051.63
2022-09-07T04:12:12.214Z,101050.78
2022-09-07T04:14:39.988Z,101047.75
2022-09-07T04:17:08.882Z,101043.28
2022-09-07T04:19:39.657Z,101029.50
2022-09-07T04:22:06.973Z,101037.19
2022-09-07T04:24:33.826Z,101026.44
2022-09-07T04:27:00.834Z,101018.13
2022-09-07T04:29:27.525Z,101018.34
2022-09-07T04:31:54.134Z,101026.00
2022-09-07T04:34:20.956Z,101032.94
2022-09-07T04:36:47.696Z,101019.00
2022-09-07T04:39:14.468Z,101029.56
2022-09-07T04:41:41.396Z,101029.94
2022-09-07T04:44:08.554Z,101013.00
2022-09-07T04:46:36.754Z,101018.66
2022-09-07T04:49:08.795Z,101020.69
2022-09-07T04:51:36.072Z,101028.81
2022-09-07T04:54:03.922Z,101026.59
2022-09-07T04:56:32.249Z,101026.78
2022-09-07T04:59:01.306Z,101028.41
2022-09-07T05:01:31.609Z,101026.78
2022-09-07T05:04:00.885Z,101027.66
2022-09-07T05:06:28.492Z,101025.03
2022-09-07T05:08:56.891Z,101028.66
2022-09-07T05:11:28.755Z,101033.50
2022-09-07T05:13:58.102Z,101030.69
2022-09-07T05:16:25.905Z,101029.69
2022-09-07T05:18:55.108Z,101023.19
2022-09-07T05:21:24.482Z,101032.94
2022-09-07T05:23:56.352Z,101031.31
2022-09-07T05:26:24.999Z,101026.47
2022-09-07T05:28:52.474Z,101038.19
2022-09-07T05:31:22.530Z,101039.16
2022-09-07T05:36:41.468Z,101046.88
2022-09-07T05:39:09.255Z,101047.00
2022-09-07T05:41:36.357Z,101037.19
2022-09-07T05:46:53.977Z,101031.03
2022-09-07T05:49:20.907Z,101038.06
2022-09-07T05:51:48.301Z,101045.56
2022-09-07T05:54:15.080Z,101043.84
2022-09-07T05:56:42.140Z,101054.97
2022-09-07T05:59:09.077Z,101045.09
2022-09-07T06:01:37.673Z,101055.19
2022-09-07T06:04:04.417Z,101042.22
2022-09-07T06:06:36.265Z,101045.66
2022-09-07T06:09:07.123Z,101043.41
2022-09-07T06:11:34.345Z,101049.88
2022-09-07T06:14:01.100Z,101047.44
2022-09-07T06:16:29.793Z,101060.53
2022-09-07T06:18:56.510Z,101049.28
2022-09-07T06:21:24.692Z,101062.09
2022-09-07T06:23:51.874Z,101058.69
2022-09-07T06:26:20.131Z,101059.84
2022-09-07T06:28:50.262Z,101059.00
2022-09-07T06:31:21.781Z,101059.41
2022-09-07T06:33:49.845Z,101061.38
2022-09-07T06:36:18.931Z,101072.25
2022-09-07T06:38:49.754Z,101064.22
2022-09-07T06:44:18.222Z,101078.50
2022-09-07T06:47:02.953Z,101075.06
2022-09-07T06:49:32.840Z,101066.22
2022-09-07T06:52:02.001Z,101082.44
2022-09-07T06:57:16.575Z,101078.69
2022-09-07T06:59:43.304Z,101073.50
2022-09-07T07:02:15.451Z,101087.59
2022-09-07T07:04:43.565Z,101088.53
2022-09-07T07:07:14.235Z,101077.66
2022-09-07T07:09:42.629Z,101102.63
2022-09-07T07:12:10.915Z,101091.69
2022-09-07T07:14:44.093Z,101104.72
2022-09-07T07:17:12.649Z,101106.16
2022-09-07T07:19:39.438Z,101109.25
2022-09-07T07:24:53.338Z,101108.94
2022-09-07T07:27:21.560Z,101093.16
2022-09-07T07:29:48.664Z,101098.28
2022-09-07T07:32:15.944Z,101099.44
2022-09-07T07:34:43.051Z,101104.38
2022-09-07T07:37:11.920Z,101103.28
2022-09-07T07:42:26.897Z,101117.38
2022-09-07T07:47:43.605Z,101115.03
2022-09-07T07:55:45.365Z,101110.69
2022-09-07T07:58:12.718Z,101120.22
2022-09-07T08:00:53.747Z,101113.41
2022-09-07T08:03:25.160Z,101113.75
2022-09-07T08:05:53.886Z,101115.94
2022-09-07T08:08:24.121Z,101114.09
2022-09-07T08:10:51.400Z,101121.56
2022-09-07T08:13:19.055Z,101127.34
2022-09-07T08:15:46.609Z,101125.66
2022-09-07T08:18:17.640Z,101119.63
2022-09-07T08:20:45.639Z,101120.72
2022-09-07T08:23:12.440Z,101123.50
2022-09-07T08:25:48.557Z,101128.56
2022-09-07T08:28:15.335Z,101125.41
2022-09-07T08:30:42.155Z,101118.25
2022-09-07T08:33:09.370Z,101120.78
2022-09-07T08:35:36.408Z,101123.44
2022-09-07T08:38:03.349Z,101128.28
2022-09-07T08:40:32.991Z,101117.88
2022-09-07T08:43:49.115Z,101134.59
2022-09-07T08:46:40.906Z,101128.81
2022-09-07T08:49:20.600Z,101133.78
2022-09-07T08:52:12.463Z,101124.69
2022-09-07T08:54:43.513Z,101134.56
2022-09-07T08:57:26.485Z,101120.75
2022-09-07T09:00:21.983Z,101135.56
2022-09-07T09:03:28.549Z,101121.53
2022-09-07T09:05:58.990Z,101136.66
2022-09-07T09:08:50.502Z,101135.03
2022-09-07T09:11:49.838Z,101133.84
2022-09-07T09:17:03.794Z,101121.03
2022-09-07T09:19:39.744Z,101117.09
2022-09-07T09:22:17.430Z,101118.44
2022-09-07T09:24:54.614Z,101116.81
2022-09-07T09:27:21.486Z,101121.16
2022-09-07T09:29:48.329Z,101127.78
2022-09-07T09:32:41.519Z,101121.25
2022-09-07T09:35:15.646Z,101125.78
2022-09-07T09:37:45.711Z,101125.25
2022-09-07T09:40:30.348Z,101119.13
2022-09-07T09:43:19.724Z,101110.53
2022-09-07T09:48:41.071Z,101136.03
2022-09-07T09:54:06.332Z,101134.97
2022-09-07T09:56:42.855Z,101124.69
2022-09-07T10:05:31.140Z,101123.34
2022-09-07T10:07:58.181Z,101119.66
2022-09-07T10:10:27.554Z,101113.72
2022-09-07T10:12:56.027Z,101120.66
2022-09-07T10:15:40.970Z,101117.03
2022-09-07T10:18:38.600Z,101108.34
2022-09-07T10:21:31.279Z,101125.28
2022-09-07T10:24:05.422Z,101109.09
2022-09-07T10:26:36.610Z,101120.03
2022-09-07T10:29:14.013Z,101117.34
2022-09-07T10:31:57.244Z,101121.91
2022-09-07T10:35:05.263Z,101122.72
2022-09-07T10:37:45.960Z,101106.91
2022-09-07T10:40:48.312Z,101118.41
2022-09-07T10:43:33.794Z,101115.75
2022-09-07T10:46:11.176Z,101110.94
2022-09-07T10:49:00.555Z,101109.59
2022-09-07T10:51:37.783Z,101105.00
2022-09-07T10:54:31.306Z,101097.03
2022-09-07T10:57:17.304Z,101099.72
2022-09-07T11:00:08.635Z,101105.31
2022-09-07T11:05:54.128Z,101079.44
2022-09-07T11:14:24.418Z,101066.03
2022-09-07T11:17:04.344Z,101062.28
2022-09-07T11:19:44.123Z,101066.50
2022-09-07T11:22:10.961Z,101067.63
2022-09-07T11:27:49.899Z,101062.28
2022-09-07T11:30:27.429Z,101082.81
2022-09-07T11:33:16.208Z,101072.94
2022-09-07T11:36:11.997Z,101074.00
2022-09-07T11:38:51.317Z,101067.34
2022-09-07T11:41:32.279Z,101060.41
2022-09-07T11:44:09.881Z,101058.50
2022-09-07T11:46:49.212Z,101052.56
2022-09-07T11:49:26.396Z,101062.09
2022-09-07T11:52:57.301Z,101046.38
2022-09-07T11:56:36.355Z,101061.69
2022-09-07T11:59:20.372Z,101040.84
2022-09-07T12:02:25.679Z,101044.50
2022-09-07T12:05:57.355Z,101038.63
2022-09-07T12:09:01.417Z,101056.19
2022-09-07T12:12:13.684Z,101050.75
2022-09-07T12:15:05.445Z,101046.66
2022-09-07T12:17:55.401Z,101038.88
2022-09-07T12:20:46.523Z,101028.28
2022-09-07T12:23:16.544Z,101033.16
2022-09-07T12:25:55.735Z,101034.53
2022-09-07T12:28:25.260Z,101046.44
2022-09-07T12:31:04.786Z,101014.03
2022-09-07T12:34:27.608Z,101030.91
2022-09-07T12:36:54.508Z,101026.09
2022-09-07T12:39:46.795Z,101017.38
2022-09-07T12:42:33.141Z,101018.47
2022-09-07T12:45:29.218Z,101026.84
2022-09-07T12:48:10.305Z,101000.16
2022-09-07T12:54:31.686Z,101018.03
2022-09-07T12:57:30.214Z,101009.78
2022-09-07T13:00:23.317Z,101007.63
2022-09-07T13:04:01.745Z,100996.63
2022-09-07T13:07:10.183Z,100991.53
2022-09-07T13:09:49.041Z,100988.22
2022-09-07T13:15:41.088Z,101003.91
2022-09-07T13:18:31.505Z,100998.09
2022-09-07T13:21:07.550Z,100991.31
2022-09-07T13:23:43.179Z,100979.69
2022-09-07T13:26:14.113Z,100993.97
2022-09-07T13:29:02.788Z,100984.47
2022-09-07T13:31:45.348Z,100976.56
2022-09-07T13:34:43.081Z,100984.69
2022-09-07T13:37:20.673Z,100977.38
2022-09-07T13:39:52.626Z,100979.31
2022-09-07T13:42:31.878Z,100971.75
2022-09-07T13:45:02.769Z,100964.91
2022-09-07T13:48:17.471Z,100963.44
2022-09-07T13:50:55.486Z,100953.22
2022-09-07T13:53:56.029Z,100970.19
2022-09-07T13:56:47.912Z,100947.09
2022-09-07T13:59:29.391Z,100960.53
2022-09-07T14:02:20.158Z,100960.75
2022-09-07T14:04:51.613Z,100960.03
2022-09-07T14:07:24.524Z,100944.44
2022-09-07T14:10:08.264Z,100947.38
2022-09-07T14:12:50.051Z,100945.31
2022-09-07T14:15:52.661Z,100951.56
2022-09-07T14:18:31.365Z,100934.34
2022-09-07T14:21:11.562Z,100944.84
2022-09-07T14:23:54.889Z,100952.94
2022-09-07T14:26:24.914Z,100936.84
2022-09-07T14:29:05.291Z,100942.72
2022-09-07T14:31:35.459Z,100935.81
2022-09-07T14:34:07.221Z,100945.78
2022-09-07T14:36:46.477Z,100935.97
2022-09-07T14:39:23.425Z,100943.59
2022-09-07T14:41:53.180Z,100930.47
2022-09-07T14:44:52.787Z,100949.03
2022-09-07T14:47:34.058Z,100931.69
2022-09-07T14:50:10.696Z,100935.13
2022-09-07T14:53:33.583Z,100931.31
2022-09-07T14:55:44.745Z,100938.78
2022-09-07T14:58:19.674Z,100932.69
2022-09-07T15:04:31.737Z,100923.50
2022-09-07T15:07:30.270Z,100936.63
2022-09-07T15:10:22.466Z,100916.69
2022-09-07T15:12:58.567Z,100902.09
2022-09-07T15:15:47.741Z,100923.56
2022-09-07T15:19:02.915Z,100923.03
2022-09-07T15:21:51.920Z,100920.41
2022-09-07T15:24:38.475Z,100906.16
2022-09-07T15:27:30.487Z,100918.44
2022-09-07T15:30:03.548Z,100909.78
2022-09-07T15:32:34.359Z,100902.28
2022-09-07T15:35:01.429Z,100911.72
2022-09-07T15:40:34.755Z,100899.63
2022-09-07T15:43:08.551Z,100911.06
2022-09-07T15:45:45.148Z,100898.72
2022-09-07T15:48:22.148Z,100910.81
2022-09-07T15:50:49.419Z,100908.91
2022-09-07T15:56:03.892Z,100889.03
2022-09-07T15:58:33.204Z,100893.44
2022-09-07T16:03:53.232Z,100889.19
2022-09-07T16:06:25.459Z,100893.09
2022-09-07T16:08:53.239Z,100898.88
2022-09-07T16:11:26.125Z,100883.38
2022-09-07T16:14:01.348Z,100878.72
2022-09-07T16:19:22.791Z,100876.63
2022-09-07T16:21:50.005Z,100877.44
2022-09-07T16:24:28.491Z,100872.88
2022-09-07T16:26:55.727Z,100887.16
2022-09-07T16:29:22.729Z,100881.16
2022-09-07T16:34:45.778Z,100866.38
2022-09-07T16:37:15.941Z,100878.56
2022-09-07T16:39:42.998Z,100877.44
2022-09-07T16:47:56.016Z,100876.06
2022-09-07T16:50:28.178Z,100879.53
2022-09-07T16:52:55.088Z,100871.91
2022-09-07T16:55:22.166Z,100876.34
2022-09-07T17:00:36.832Z,100876.00
2022-09-07T17:03:09.470Z,100873.31
2022-09-07T17:05:49.849Z,100861.00
2022-09-07T17:08:17.327Z,100858.94
2022-09-07T17:10:58.490Z,100866.00
2022-09-07T17:13:33.671Z,100850.13
2022-09-07T17:16:06.098Z,100847.53
2022-09-07T17:21:33.215Z,100841.91
2022-09-07T17:24:04.938Z,100844.09
2022-09-07T17:26:35.470Z,100843.69
2022-09-07T17:29:37.043Z,100858.38
2022-09-07T17:32:26.728Z,100864.00
2022-09-07T17:34:56.612Z,100853.91
2022-09-07T17:37:25.695Z,100849.13
2022-09-07T17:39:56.901Z,100860.13
2022-09-07T17:43:38.790Z,100850.78
2022-09-07T17:45:23.578Z,100855.38
2022-09-07T17:47:50.766Z,100851.66
2022-09-07T17:50:26.529Z,100851.16
2022-09-07T17:53:00.106Z,100861.06
2022-09-07T17:55:32.893Z,100850.13
2022-09-07T17:58:04.806Z,100850.13
2022-09-07T18:00:34.745Z,100850.91
2022-09-07T18:03:04.906Z,100833.56
2022-09-07T18:05:36.191Z,100846.88
2022-09-07T18:08:03.485Z,100842.91
2022-09-07T18:13:35.640Z,100841.81
2022-09-07T18:16:24.119Z,100846.59
2022-09-07T18:18:52.123Z,100840.91
2022-09-07T18:21:27.557Z,100843.81
2022-09-07T18:23:56.370Z,100841.66
2022-09-07T18:26:29.817Z,100848.06
2022-09-07T18:29:04.311Z,100844.78
2022-09-07T18:31:32.062Z,100844.53
2022-09-07T18:33:59.064Z,100865.84
2022-09-07T18:39:15.310Z,100845.53
2022-09-07T18:41:42.304Z,100841.50
2022-09-07T18:46:56.285Z,100840.34
2022-09-07T18:49:23.514Z,100847.72
2022-09-07T18:54:38.714Z,100845.47
2022-09-07T18:57:06.687Z,100839.06
2022-09-07T18:59:34.520Z,100850.00
2022-09-07T19:02:05.045Z,100858.56
2022-09-07T19:07:28.820Z,100853.53
2022-09-07T19:09:59.843Z,100859.38
2022-09-07T19:12:29.595Z,100852.94
2022-09-07T19:14:57.123Z,100856.69
2022-09-07T19:17:26.319Z,100870.25
2022-09-07T19:19:55.452Z,100859.34
2022-09-07T19:22:24.255Z,100856.41
2022-09-07T19:24:53.824Z,100859.38
2022-09-07T19:27:22.602Z,100861.59
2022-09-07T19:29:49.569Z,100849.84
2022-09-07T19:32:18.692Z,100855.41
2022-09-07T19:34:46.009Z,100842.91
2022-09-07T19:37:15.832Z,100855.63
2022-09-07T19:39:42.842Z,100855.38
2022-09-07T19:42:09.715Z,100850.84
2022-09-07T19:44:36.540Z,100853.81
2022-09-07T19:47:03.377Z,100850.81
2022-09-07T19:49:30.546Z,100852.84
2022-09-07T19:51:57.428Z,100861.53
2022-09-07T19:54:27.541Z,100853.97
2022-09-07T19:56:54.385Z,100838.06
2022-09-07T19:59:21.146Z,100841.75
2022-09-07T20:01:49.441Z,100840.28
2022-09-07T20:04:23.556Z,100829.50
2022-09-07T20:06:51.492Z,100822.72
2022-09-07T20:09:22.519Z,100821.34
2022-09-07T20:11:53.860Z,100835.97
2022-09-07T20:14:23.418Z,100821.53
2022-09-07T20:16:50.329Z,100816.75
2022-09-07T20:19:20.045Z,100819.16
2022-09-07T20:21:48.109Z,100811.94
2022-09-07T20:24:22.094Z,100804.25
2022-09-07T20:26:54.977Z,100800.91
2022-09-07T20:29:28.151Z,100793.06
2022-09-07T20:31:57.858Z,100798.31
2022-09-07T20:34:25.669Z,100797.44
2022-09-07T20:36:54.871Z,100794.72
2022-09-07T20:39:21.759Z,100789.28
2022-09-07T20:41:48.528Z,100793.84
2022-09-07T20:44:21.234Z,100778.44
2022-09-07T20:46:47.884Z,100777.44
2022-09-07T20:49:22.624Z,100772.50
2022-09-07T20:51:49.638Z,100766.53
2022-09-07T20:54:16.407Z,100766.84
2022-09-07T20:56:44.475Z,100763.03
2022-09-07T20:59:12.338Z,100758.56
2022-09-07T21:01:39.167Z,100769.88
2022-09-07T21:04:06.231Z,100765.91
2022-09-07T21:06:36.603Z,100773.16
2022-09-07T21:09:04.484Z,100769.47
2022-09-07T21:11:33.666Z,100779.38
2022-09-07T21:14:07.895Z,100774.81
2022-09-07T21:16:36.277Z,100775.38
2022-09-07T21:19:06.929Z,100782.84
2022-09-07T21:21:45.544Z,100775.38
2022-09-07T21:24:20.714Z,100780.97
2022-09-07T21:26:48.602Z,100777.81
2022-09-07T21:29:28.025Z,100774.25
2022-09-07T21:31:58.311Z,100770.88
2022-09-07T21:34:42.459Z,100776.41
2022-09-07T21:37:13.011Z,100761.22
2022-09-07T21:39:40.415Z,100773.88
2022-09-07T21:42:12.888Z,100781.81
2022-09-07T21:44:44.494Z,100778.72
2022-09-07T21:47:14.905Z,100781.38
2022-09-07T21:49:42.003Z,100764.84
2022-09-07T21:52:08.831Z,100760.31
2022-09-07T21:54:40.817Z,100757.13
2022-09-07T21:57:14.552Z,100779.59
2022-09-07T21:59:44.444Z,100766.16
2022-09-07T22:02:11.394Z,100767.44
2022-09-07T22:04:40.821Z,100767.72
2022-09-07T22:07:12.991Z,100775.47
2022-09-07T22:09:40.098Z,100770.63
2022-09-07T22:12:17.191Z,100780.78
2022-09-07T22:15:02.607Z,100775.47
2022-09-07T22:18:01.207Z,100760.59
2022-09-07T22:20:31.260Z,100762.44
2022-09-07T22:23:01.321Z,100756.63
2022-09-07T22:25:30.499Z,100755.38
2022-09-07T22:28:03.658Z,100752.72
2022-09-07T22:30:41.160Z,100756.41
2022-09-07T22:33:13.023Z,100743.91
2022-09-07T22:35:40.063Z,100749.06
2022-09-07T22:38:12.630Z,100742.09
2022-09-07T22:40:39.461Z,100743.13
2022-09-07T22:43:10.474Z,100746.63
2022-09-07T22:45:37.270Z,100741.00
2022-09-07T22:48:06.993Z,100737.28
2022-09-07T22:50:33.918Z,100738.03
2022-09-07T22:53:00.680Z,100735.13
2022-09-07T22:55:27.594Z,100733.50
2022-09-07T22:57:58.341Z,100731.69
2022-09-07T23:00:25.109Z,100739.66
2022-09-07T23:02:51.769Z,100747.91
2022-09-07T23:05:22.942Z,100730.84
2022-09-07T23:07:49.707Z,100729.75
2022-09-07T23:10:18.391Z,100723.59
2022-09-07T23:12:52.252Z,100724.44
2022-09-07T23:15:22.995Z,100721.47
2022-09-07T23:17:51.128Z,100727.09
2022-09-07T23:20:18.680Z,100716.47
2022-09-07T23:22:50.982Z,100706.88
2022-09-07T23:25:21.330Z,100701.78
2022-09-07T23:27:57.489Z,100712.47
2022-09-07T23:30:28.779Z,100715.94
2022-09-07T23:32:55.696Z,100711.88
2022-09-07T23:35:29.069Z,100707.34
2022-09-07T23:38:03.561Z,100707.50
2022-09-07T23:40:39.408Z,100705.34
2022-09-07T23:43:32.545Z,100717.00
2022-09-07T23:46:00.543Z,100706.47
2022-09-07T23:48:30.105Z,100713.91
2022-09-07T23:50:59.815Z,100716.41
2022-09-07T23:53:29.572Z,100709.69
2022-09-07T23:56:03.138Z,100720.63
2022-09-07T23:58:31.149Z,100711.78
